Time;durP1;ratioP1;P1;durP2;ratioP2;P2;SDS_P1;SDS_P2;PMS_P1;PMS_P2;Temp;Humidity;BMP_temperature;BMP_pressure;BME280_temperature;BME280_humidity;BME280_pressure;Samples;Min_cycle;Max_cycle;Signal;HPM_P1;HPM_P2
2022/09/20 00:02:09;;;;;;;12.75;2.83;;;;;;;10.99;100.00;102314.22;5287223;28;20048;-71
2022/09/20 00:04:39;;;;;;;9.55;2.80;;;;;;;10.92;100.00;102310.38;5278478;28;20074;-71
2022/09/20 00:07:10;;;;;;;8.05;2.30;;;;;;;10.84;100.00;102306.53;5286766;28;20114;-72
2022/09/20 00:09:40;;;;;;;9.95;2.55;;;;;;;10.79;100.00;102303.41;5289911;28;20059;-72
2022/09/20 00:12:11;;;;;;;11.77;2.92;;;;;;;10.76;100.00;102303.66;5288377;28;20027;-71
2022/09/20 00:14:41;;;;;;;11.50;2.83;;;;;;;10.74;100.00;102307.44;5277446;28;20032;-71
2022/09/20 00:17:12;;;;;;;7.18;2.78;;;;;;;10.76;100.00;102308.19;5287253;28;20114;-72
2022/09/20 00:19:42;;;;;;;13.20;2.75;;;;;;;10.75;100.00;102312.69;5287889;28;20107;-71
2022/09/20 00:22:12;;;;;;;7.18;2.15;;;;;;;10.77;100.00;102308.03;5274273;28;20032;-73
2022/09/20 00:24:44;;;;;;;8.63;2.80;;;;;;;10.80;100.00;102313.16;5287152;28;20055;-72
2022/09/20 00:27:14;;;;;;;4.60;2.50;;;;;;;10.84;100.00;102303.84;5287958;28;20047;-72
2022/09/20 00:29:45;;;;;;;9.65;2.45;;;;;;;10.87;100.00;102295.50;5287917;28;20106;-72
2022/09/20 00:32:15;;;;;;;8.82;2.80;;;;;;;10.88;100.00;102301.72;5269545;28;20880;-71
2022/09/20 00:37:37;;;;;;;8.18;2.45;;;;;;;10.91;100.00;102306.84;5287858;28;20064;-72
2022/09/20 00:40:13;;;;;;;7.93;2.30;;;;;;;10.96;100.00;102309.97;5273706;28;20038;-71
2022/09/20 00:42:43;;;;;;;9.65;2.55;;;;;;;10.98;100.00;102305.31;5287178;28;20027;-73
2022/09/20 00:45:28;;;;;;;7.50;2.58;;;;;;;10.98;100.00;102304.47;5280058;28;20024;-73
2022/09/20 00:48:10;;;;;;;11.40;2.80;;;;;;;10.98;100.00;102302.63;5283410;28;20034;-72
2022/09/20 00:50:44;;;;;;;9.40;2.55;;;;;;;10.97;100.00;102303.63;5275360;28;20495;-72
2022/09/20 00:53:21;;;;;;;20.05;3.00;;;;;;;10.98;100.00;102308.00;5286188;28;20674;-72
2022/09/20 00:55:56;;;;;;;10.68;2.63;;;;;;;10.99;100.00;102308.84;5286580;28;20020;-72
2022/09/20 00:58:28;;;;;;;11.13;2.45;;;;;;;10.97;100.00;102300.94;5277753;28;20027;-73
2022/09/20 01:00:59;;;;;;;10.40;2.50;;;;;;;11.00;100.00;102306.06;5287239;28;20042;-72
2022/09/20 01:03:32;;;;;;;8.75;2.47;;;;;;;11.00;100.00;102311.44;5287108;28;20389;-72
2022/09/20 01:06:06;;;;;;;12.48;2.45;;;;;;;11.00;100.00;102300.69;5281646;28;20464;-72
2022/09/20 01:08:40;;;;;;;10.20;2.40;;;;;;;11.01;100.00;102298.84;5260908;28;20046;-72
2022/09/20 01:11:11;;;;;;;11.98;2.75;;;;;;;11.01;100.00;102305.06;5287284;28;20026;-72
2022/09/20 01:13:42;;;;;;;13.20;2.60;;;;;;;11.02;100.00;102297.84;5286812;28;20473;-72
2022/09/20 01:16:14;;;;;;;4.72;2.10;;;;;;;11.03;100.00;102303.09;5282101;28;20470;-72
2022/09/20 01:18:47;;;;;;;8.60;2.35;;;;;;;11.03;100.00;102307.59;5277933;28;20035;-72
2022/09/20 01:21:18;;;;;;;6.93;2.15;;;;;;;11.02;100.00;102306.75;5286869;28;20016;-72
2022/09/20 01:24:24;;;;;;;11.75;2.28;;;;;;;11.00;100.00;102308.75;5286392;28;20719;-72
2022/09/20 01:27:20;;;;;;;7.47;2.20;;;;;;;10.98;100.00;102305.31;5266013;28;20027;-73
2022/09/20 01:30:08;;;;;;;9.67;2.60;;;;;;;10.97;100.00;102300.94;5276128;28;20063;-72
2022/09/20 01:32:54;;;;;;;7.90;2.08;;;;;;;10.97;100.00;102309.00;5279982;28;20038;-72
2022/09/20 01:35:27;;;;;;;10.32;2.50;;;;;;;10.97;100.00;102303.63;5286044;28;20036;-72
2022/09/20 01:38:33;;;;;;;10.65;2.33;;;;;;;11.00;100.00;102302.53;5278593;28;20113;-72
2022/09/20 01:41:23;;;;;;;10.07;2.35;;;;;;;10.99;100.00;102304.31;5286559;28;20272;-72
2022/09/20 01:44:05;;;;;;;8.27;3.13;;;;;;;10.98;100.00;102309.84;5278556;28;20085;-72
2022/09/20 01:46:37;;;;;;;8.80;2.40;;;;;;;10.95;100.00;102302.06;5266321;28;20111;-72
2022/09/20 01:49:45;;;;;;;9.82;3.30;;;;;;;10.94;100.00;102305.72;5279088;28;20032;-72
2022/09/20 01:52:53;;;;;;;6.53;2.65;;;;;;;10.91;100.00;102306.84;5273168;28;20489;-72
2022/09/20 01:55:53;;;;;;;9.63;2.50;;;;;;;10.98;100.00;102302.63;5286010;28;20080;-72
2022/09/20 01:58:57;;;;;;;13.85;2.97;;;;;;;10.96;100.00;102309.97;5281588;28;20016;-73
2022/09/20 02:02:00;;;;;;;8.05;4.07;;;;;;;11.00;100.00;102315.94;5267055;28;20036;-73
2022/09/20 02:05:01;;;;;;;14.25;4.47;;;;;;;11.03;100.00;102315.66;5280784;28;20051;-73
2022/09/20 02:07:51;;;;;;;10.75;3.08;;;;;;;11.04;100.00;102322.72;5288290;28;20027;-73
2022/09/20 02:10:46;;;;;;;6.72;2.53;;;;;;;11.04;100.00;102320.88;5273774;28;20058;-73
2022/09/20 02:13:26;;;;;;;8.95;3.20;;;;;;;11.06;100.00;102326.16;5288687;28;20107;-72
2022/09/20 02:16:30;;;;;;;12.35;3.08;;;;;;;11.07;100.00;102325.16;5283971;28;20077;-72
2022/09/20 02:19:39;;;;;;;15.77;3.65;;;;;;;11.05;100.00;102321.78;5283183;28;20086;-72
2022/09/20 02:22:51;;;;;;;11.13;2.90;;;;;;;11.05;100.00;102322.63;5286094;28;20106;-73
2022/09/20 02:25:52;;;;;;;12.07;2.95;;;;;;;11.04;100.00;102314.69;5275359;28;20093;-73
2022/09/20 02:28:51;;;;;;;13.65;3.72;;;;;;;11.03;100.00;102316.50;5276612;28;20027;-72
2022/09/20 02:31:48;;;;;;;13.27;3.30;;;;;;;11.06;100.00;102318.09;5256223;28;20042;-72
2022/09/20 02:34:48;;;;;;;12.32;3.28;;;;;;;11.06;100.00;102313.56;5276768;28;20119;-72
2022/09/20 02:37:49;;;;;;;8.30;3.08;;;;;;;11.04;100.00;102312.84;5286318;28;20089;-73
2022/09/20 02:40:38;;;;;;;16.20;3.22;;;;;;;11.02;100.00;102304.06;5271817;28;20032;-73
2022/09/20 02:43:29;;;;;;;9.25;3.00;;;;;;;11.02;100.00;102303.22;5281874;28;20102;-73
2022/09/20 02:46:19;;;;;;;5.53;2.92;;;;;;;10.98;100.00;102302.63;5288973;28;20023;-73
2022/09/20 02:49:03;;;;;;;8.68;3.70;;;;;;;10.95;100.00;102302.06;5289603;28;20039;-72
2022/09/20 02:51:40;;;;;;;9.35;4.32;;;;;;;10.93;100.00;102304.88;5289780;28;20031;-73
2022/09/20 02:54:48;;;;;;;7.75;3.78;;;;;;;10.92;100.00;102300.50;5275517;28;20107;-72
2022/09/20 02:57:25;;;;;;;10.00;3.90;;;;;;;10.92;100.00;102305.00;5288578;28;20030;-72
2022/09/20 03:00:01;;;;;;;10.65;4.32;;;;;;;10.91;100.00;102312.22;5261266;28;20032;-72
2022/09/20 03:02:50;;;;;;;;;;;;;;;10.95;100.00;102305.59;5287280;28;20100;-72
2022/09/20 03:05:56;;;;;;;15.48;4.25;;;;;;;10.98;100.00;102305.31;5273119;28;19907;-72
2022/09/20 03:09:04;;;;;;;12.15;3.60;;;;;;;11.00;100.00;102295.31;5289055;28;20034;-72
2022/09/20 03:11:40;;;;;;;12.85;5.03;;;;;;;10.98;100.00;102299.09;5287709;28;20023;-72
2022/09/20 03:14:17;;;;;;;9.00;3.75;;;;;;;10.96;100.00;102293.03;5281171;28;20159;-73
2022/09/20 03:16:56;;;;;;;10.02;4.63;;;;;;;10.95;100.00;102292.19;5283932;28;20023;-72
2022/09/20 03:19:51;;;;;;;12.00;4.72;;;;;;;10.95;100.00;102292.19;5289051;28;20031;-72
2022/09/20 03:22:35;;;;;;;11.15;4.32;;;;;;;10.95;100.00;102294.88;5282607;28;20040;-72
2022/09/20 03:25:41;;;;;;;10.93;5.00;;;;;;;10.94;100.00;102293.13;5271397;28;20106;-72
2022/09/20 03:28:38;;;;;;;9.77;5.03;;;;;;;10.93;100.00;102294.13;5272369;28;20039;-72
2022/09/20 03:31:43;;;;;;;11.05;4.85;;;;;;;10.92;100.00;102297.81;5289016;28;20106;-72
2022/09/20 03:34:40;;;;;;;12.68;4.57;;;;;;;10.89;100.00;102290.88;5288218;28;20041;-72
2022/09/20 03:37:45;;;;;;;13.85;5.28;;;;;;;10.90;100.00;102291.72;5279510;28;20031;-73
2022/09/20 03:40:34;;;;;;;18.25;5.10;;;;;;;10.86;100.00;102290.28;5277716;28;20032;-73
2022/09/20 03:43:33;;;;;;;17.73;5.60;;;;;;;10.84;100.00;102287.75;5279361;28;20026;-73
2022/09/20 03:46:19;;;;;;;13.20;5.38;;;;;;;10.83;100.00;102294.06;5287607;28;20037;-72
2022/09/20 03:49:08;;;;;;;13.82;5.07;;;;;;;10.83;100.00;102288.69;5275406;28;20040;-72
2022/09/20 03:51:52;;;;;;;17.63;5.43;;;;;;;10.82;100.00;102287.00;5277203;28;20023;-73
2022/09/20 03:55:01;;;;;;;15.93;6.18;;;;;;;10.81;100.00;102287.16;5287554;28;20028;-72
2022/09/20 03:58:12;;;;;;;12.57;4.47;;;;;;;10.79;100.00;102287.28;5288617;28;20020;-72
2022/09/20 04:00:59;;;;;;;14.82;4.82;;;;;;;10.77;100.00;102280.34;5284693;28;20028;-71
2022/09/20 04:03:53;;;;;;;14.68;4.70;;;;;;;10.77;100.00;102285.72;5288509;28;20038;-72
2022/09/20 04:06:46;;;;;;;12.75;5.35;;;;;;;10.79;100.00;102303.41;5288069;28;20015;-72
2022/09/20 04:09:47;;;;;;;12.88;4.90;;;;;;;10.82;100.00;102318.38;5288095;28;20036;-71
2022/09/20 04:12:51;;;;;;;17.55;4.85;;;;;;;10.92;100.00;102338.09;5288437;28;20048;-72
2022/09/20 04:15:59;;;;;;;19.42;5.93;;;;;;;10.95;100.00;102340.50;5275489;28;20488;-72
2022/09/20 04:18:49;;;;;;;16.30;5.70;;;;;;;10.96;100.00;102336.00;5283811;28;20381;-73
2022/09/20 04:21:56;;;;;;;13.52;7.22;;;;;;;10.89;100.00;102325.78;5288381;28;20027;-73
2022/09/20 04:24:45;;;;;;;14.50;6.45;;;;;;;10.85;100.00;102327.03;5279915;28;20051;-74
2022/09/20 04:27:26;;;;;;;18.23;7.43;;;;;;;10.87;100.00;102321.50;5283792;28;20429;-74
2022/09/20 04:30:00;;;;;;;22.83;8.20;;;;;;;10.82;100.00;102313.84;5287783;28;20027;-74
2022/09/20 04:32:41;;;;;;;17.60;7.22;;;;;;;10.82;100.00;102305.81;5287434;28;20039;-74
2022/09/20 04:38:30;;;;;;;19.55;8.38;;;;;;;10.77;100.00;102299.97;5286228;28;20035;-74
2022/09/20 04:41:27;;;;;;;23.35;9.05;;;;;;;10.75;100.00;102291.22;5276002;28;20027;-74
2022/09/20 04:44:26;;;;;;;20.20;9.02;;;;;;;10.73;100.00;102292.31;5284202;28;20028;-73
2022/09/20 04:47:27;;;;;;;24.95;10.15;;;;;;;10.69;100.00;102294.41;5287396;28;20036;-73
2022/09/20 04:50:14;;;;;;;22.85;10.25;;;;;;;10.67;100.00;102298.22;5287294;28;20058;-73
2022/09/20 04:53:17;;;;;;;25.83;12.05;;;;;;;10.62;100.00;102303.97;5287182;28;20374;-73
2022/09/20 04:58:39;;;;;;;30.42;13.68;;;;;;;10.43;100.00;102298.47;5275181;28;20524;-72
2022/09/20 05:01:15;;;;;;;26.95;13.65;;;;;;;10.38;100.00;102301.53;5287302;28;20549;-72
2022/09/20 05:04:23;;;;;;;26.65;12.75;;;;;;;10.31;100.00;102298.53;5287000;28;20499;-72
2022/09/20 05:07:13;;;;;;;25.27;12.48;;;;;;;10.26;100.00;102295.38;5274705;28;20110;-73
2022/09/20 05:10:02;;;;;;;24.35;13.95;;;;;;;10.19;100.00;102291.50;5286740;28;20103;-73
2022/09/20 05:13:08;;;;;;;29.80;15.50;;;;;;;10.11;100.00;102305.53;5287057;28;20398;-73
2022/09/20 05:15:52;;;;;;;32.70;15.80;;;;;;;10.04;100.00;102300.78;5285459;28;20042;-73
2022/09/20 05:18:42;;;;;;;27.58;14.45;;;;;;;9.97;100.00;102305.81;5287393;28;20106;-74
2022/09/20 05:21:49;;;;;;;36.88;17.30;;;;;;;9.90;100.00;102303.78;5285843;28;20074;-73
2022/09/20 05:24:39;;;;;;;36.78;16.77;;;;;;;9.82;100.00;102301.72;5285350;28;20066;-74
2022/09/20 05:27:35;;;;;;;39.95;15.85;;;;;;;9.73;100.00;102308.69;5286775;28;20042;-74
2022/09/20 05:30:38;;;;;;;38.45;17.35;;;;;;;9.71;100.00;102309.81;5280271;28;20090;-74
2022/09/20 05:33:19;;;;;;;32.05;17.88;;;;;;;9.68;100.00;102308.22;5283386;28;20387;-73
2022/09/20 05:36:12;;;;;;;35.00;17.98;;;;;;;9.59;100.00;102320.53;5282353;28;20031;-74
2022/09/20 05:38:48;;;;;;;31.55;17.05;;;;;;;9.58;100.00;102321.50;5279829;28;20027;-73
2022/09/20 05:41:36;;;;;;;30.85;17.88;;;;;;;9.57;100.00;102327.84;5282030;28;20023;-74
2022/09/20 05:44:46;;;;;;;35.85;18.90;;;;;;;9.54;100.00;102330.78;5282492;28;20028;-73
2022/09/20 05:47:24;;;;;;;32.30;17.20;;;;;;;9.56;100.00;102333.34;5281452;28;20039;-73
2022/09/20 05:50:02;;;;;;;34.05;19.05;;;;;;;9.57;100.00;102340.38;5279203;28;20055;-73
2022/09/20 05:52:48;;;;;;;31.23;19.35;;;;;;;9.60;100.00;102340.16;5286585;28;20105;-73
2022/09/20 05:55:36;;;;;;;33.47;19.65;;;;;;;9.63;100.00;102345.25;5276877;28;20543;-74
2022/09/20 05:58:45;;;;;;;38.45;19.60;;;;;;;9.69;100.00;102339.41;5286244;28;20053;-74
2022/09/20 06:01:33;;;;;;;34.10;20.05;;;;;;;9.76;100.00;102345.97;5286075;28;20490;-74
2022/09/20 06:04:35;;;;;;;29.27;17.80;;;;;;;9.89;100.00;102336.91;5272964;28;20024;-73
2022/09/20 06:07:16;;;;;;;33.20;17.05;;;;;;;10.01;100.00;102342.13;5275959;28;20054;-72
2022/09/20 06:10:06;;;;;;;28.17;15.98;;;;;;;10.09;100.00;102346.84;5272113;28;20118;-72
2022/09/20 06:12:56;;;;;;;25.83;14.55;;;;;;;10.13;100.00;102342.94;5286145;28;20058;-72
2022/09/20 06:15:39;;;;;;;25.05;13.98;;;;;;;10.16;100.00;102350.75;5288003;28;20034;-72
2022/09/20 06:18:10;;;;;;;30.58;13.43;;;;;;;10.38;100.00;102348.00;5290017;28;20473;-72
2022/09/20 06:20:47;;;;;;;24.95;12.50;;;;;;;10.75;100.00;102350.28;5290332;28;20034;-72
2022/09/20 06:23:19;;;;;;;23.10;11.60;;;;;;;11.14;100.00;102355.84;5281135;28;20108;-73
2022/09/20 06:25:56;;;;;;;21.52;10.35;;;;;;;11.63;100.00;102360.47;5279504;28;20023;-72
2022/09/20 06:28:32;;;;;;;21.08;9.27;;;;;;;12.09;100.00;102358.19;5289858;28;20023;-73
2022/09/20 06:31:06;;;;;;;16.02;7.57;;;;;;;12.28;100.00;102357.38;5273305;28;20099;-72
2022/09/20 06:33:43;;;;;;;17.40;7.43;;;;;;;12.23;100.00;102360.50;5285967;28;20020;-72
2022/09/20 06:42:21;;;;;;;;;;;;;;;11.56;100.00;102362.00;5279663;27;20030;-72
2022/09/20 06:44:53;;;;;;;21.73;8.70;;;;;;;11.48;100.00;102363.66;5273591;28;19908;-73
2022/09/20 06:47:24;;;;;;;17.50;9.00;;;;;;;11.45;100.00;102363.97;5274619;28;20477;-73
2022/09/20 06:49:55;;;;;;;16.50;9.77;;;;;;;11.38;100.00;102363.63;5275267;28;20019;-72
2022/09/20 06:52:26;;;;;;;18.40;9.30;;;;;;;11.31;100.00;102360.63;5273612;28;20024;-73
2022/09/20 06:54:56;;;;;;;16.98;9.05;;;;;;;11.27;100.00;102359.19;5283882;28;20354;-73
2022/09/20 06:57:34;;;;;;;21.50;9.40;;;;;;;11.23;100.00;102360.44;5272378;28;20480;-73
2022/09/20 07:00:09;;;;;;;19.23;9.15;;;;;;;11.22;100.00;102358.75;5280132;28;20394;-72
2022/09/20 07:02:39;;;;;;;20.50;8.82;;;;;;;11.20;100.00;102366.09;5281094;28;20038;-73
2022/09/20 07:05:25;;;;;;;20.83;7.97;;;;;;;11.23;100.00;102373.03;5282550;28;20036;-72
2022/09/20 07:07:57;;;;;;;16.70;8.18;;;;;;;11.23;100.00;102389.13;5278838;28;20027;-72
2022/09/20 07:10:27;;;;;;;21.02;8.98;;;;;;;11.22;100.00;102385.59;5274621;28;20031;-72
2022/09/20 07:13:01;;;;;;;22.73;10.30;;;;;;;11.24;100.00;102386.31;5278850;28;20623;-72
2022/09/20 07:15:32;;;;;;;19.33;9.95;;;;;;;11.26;100.00;102384.38;5281216;28;20039;-73
2022/09/20 07:18:03;;;;;;;17.42;9.70;;;;;;;11.31;100.00;102378.59;5277821;28;20312;-73
2022/09/20 07:20:33;;;;;;;24.15;9.90;;;;;;;11.35;100.00;102380.88;5276395;28;20024;-72
2022/09/20 07:23:04;;;;;;;14.23;8.38;;;;;;;11.37;100.00;102384.28;5276469;28;20020;-72
2022/09/20 07:25:35;;;;;;;19.23;9.38;;;;;;;11.44;100.00;102378.34;5277647;28;20499;-72
2022/09/20 07:28:05;;;;;;;19.63;9.02;;;;;;;11.48;100.00;102391.38;5282470;28;20208;-72
2022/09/20 07:30:37;;;;;;;22.88;8.82;;;;;;;11.51;100.00;102383.06;5282046;28;20028;-73
2022/09/20 07:33:09;;;;;;;21.10;9.63;;;;;;;11.55;100.00;102387.19;5272694;28;20032;-72
2022/09/20 07:35:40;;;;;;;15.75;8.80;;;;;;;11.60;100.00;102387.63;5279619;28;20076;-73
2022/09/20 07:38:11;;;;;;;15.45;8.63;;;;;;;11.67;100.00;102385.25;5273992;28;20035;-72
2022/09/20 07:40:44;;;;;;;17.85;8.63;;;;;;;11.76;100.00;102388.97;5279504;28;20549;-72
2022/09/20 07:43:14;;;;;;;19.02;7.88;;;;;;;11.82;100.00;102391.97;5279794;28;20480;-72
2022/09/20 07:45:50;;;;;;;18.10;8.10;;;;;;;11.83;100.00;102396.38;5277382;28;20031;-72
2022/09/20 07:48:24;;;;;;;18.08;8.15;;;;;;;11.84;100.00;102395.38;5275206;28;20077;-72
2022/09/20 07:51:00;;;;;;;18.05;8.13;;;;;;;11.89;100.00;102398.50;5270784;28;20054;-72
2022/09/20 07:53:31;;;;;;;22.92;7.57;;;;;;;11.90;100.00;102399.38;5272533;28;20347;-72
2022/09/20 07:56:04;;;;;;;18.52;7.22;;;;;;;11.91;100.00;102409.13;5272551;28;20382;-72
2022/09/20 07:58:35;;;;;;;13.52;7.13;;;;;;;12.00;100.00;102407.44;5271440;28;20062;-72
2022/09/20 08:01:08;;;;;;;17.63;7.60;;;;;;;12.12;100.00;102411.75;5281323;28;20019;-72
2022/09/20 08:03:39;;;;;;;18.55;7.72;;;;;;;12.24;100.00;102418.69;5283714;28;20067;-72
2022/09/20 08:06:13;;;;;;;16.27;7.07;;;;;;;12.39;100.00;102413.75;5281484;28;20101;-72
2022/09/20 08:08:44;;;;;;;17.35;7.10;;;;;;;12.54;100.00;102419.56;5284628;28;20036;-72
2022/09/20 08:11:18;;;;;;;12.27;6.93;;;;;;;12.70;100.00;102422.53;5284564;28;20024;-72
2022/09/20 08:13:50;;;;;;;20.23;6.78;;;;;;;12.88;100.00;102417.31;5284880;28;20035;-72
2022/09/20 08:16:20;;;;;;;17.05;6.20;;;;;;;13.00;100.00;102418.84;5284391;28;20034;-72
2022/09/20 08:18:55;;;;;;;16.80;6.45;;;;;;;13.08;100.00;102420.84;5285455;28;20035;-72
2022/09/20 08:21:30;;;;;;;20.23;6.40;;;;;;;13.20;100.00;102423.22;5284148;28;20114;-72
2022/09/20 08:24:02;;;;;;;14.10;5.50;;;;;;;13.51;100.00;102419.50;5288037;28;20168;-72
2022/09/20 08:26:34;;;;;;;14.10;5.95;;;;;;;13.74;100.00;102434.28;5286800;28;20024;-72
2022/09/20 08:29:05;;;;;;;13.10;5.47;;;;;;;13.87;100.00;102440.19;5285542;28;20023;-72
2022/09/20 08:31:37;;;;;;;10.75;5.15;;;;;;;13.74;100.00;102428.88;5280432;28;20019;-72
2022/09/20 08:34:10;;;;;;;10.73;4.70;;;;;;;13.79;100.00;102436.53;5274531;28;20239;-72
2022/09/20 08:36:45;;;;;;;14.95;5.03;;;;;;;13.61;100.00;102433.78;5274695;28;20039;-72
2022/09/20 08:39:15;;;;;;;14.05;6.13;;;;;;;13.44;100.00;102432.69;5272841;28;20044;-72
2022/09/20 08:42:10;;;;;;;11.00;5.75;;;;;;;13.50;100.00;102431.25;5263252;28;20294;-72
2022/09/20 08:44:51;;;;;;;13.77;5.80;;;;;;;13.46;100.00;102431.56;5262532;28;20039;-72
2022/09/20 08:47:26;;;;;;;10.45;5.72;;;;;;;13.51;100.00;102427.56;5264587;28;20024;-72
2022/09/20 08:49:58;;;;;;;11.90;5.18;;;;;;;13.57;100.00;102424.28;5263291;28;20081;-72
2022/09/20 08:52:32;;;;;;;17.23;6.20;;;;;;;13.65;100.00;102421.69;5264815;28;20020;-72
2022/09/20 08:55:13;;;;;;;9.68;4.85;;;;;;;13.97;100.00;102426.66;5262940;28;20035;-72
2022/09/20 08:57:48;;;;;;;13.35;5.05;;;;;;;14.29;100.00;102430.72;5246206;28;20024;-72
2022/09/20 09:00:22;;;;;;;14.70;4.82;;;;;;;14.65;100.00;102432.47;5263205;28;20042;-72
2022/09/20 09:02:55;;;;;;;11.73;4.50;;;;;;;14.75;100.00;102435.94;5274779;28;20028;-72
2022/09/20 09:05:47;;;;;;;7.82;4.57;;;;;;;14.82;100.00;102440.75;5269860;28;20032;-72
2022/09/20 09:08:23;;;;;;;17.05;5.85;;;;;;;14.89;100.00;102439.94;5258927;28;20023;-72
2022/09/20 09:10:58;;;;;;;11.30;5.40;;;;;;;15.06;100.00;102440.06;5272729;28;20370;-72
2022/09/20 09:13:47;;;;;;;14.05;5.43;;;;;;;14.99;100.00;102438.00;5276912;28;20508;-72
2022/09/20 09:16:20;;;;;;;11.40;4.95;;;;;;;15.14;100.00;102446.41;5281452;28;20032;-72
2022/09/20 09:18:51;;;;;;;12.90;5.47;;;;;;;15.28;100.00;102432.31;5266103;28;20024;-72
2022/09/20 09:21:27;;;;;;;14.85;5.22;;;;;;;15.45;100.00;102437.81;5279824;28;20034;-72
2022/09/20 09:24:15;;;;;;;10.35;5.32;;;;;;;15.54;100.00;102431.47;5281668;28;20401;-72
2022/09/20 09:26:46;;;;;;;9.25;4.95;;;;;;;15.66;100.00;102429.34;5271487;28;20028;-72
2022/09/20 09:29:22;;;;;;;14.60;4.93;;;;;;;15.71;100.00;102438.69;5276795;28;20510;-71
2022/09/20 09:31:53;;;;;;;10.63;4.80;;;;;;;15.88;100.00;102438.78;5283193;28;20032;-72
2022/09/20 09:34:27;;;;;;;17.83;4.40;;;;;;;16.10;100.00;102432.75;5273431;28;20015;-72
2022/09/20 09:36:58;;;;;;;12.02;4.80;;;;;;;16.31;100.00;102441.31;5273192;28;20020;-72
2022/09/20 09:39:32;;;;;;;14.45;5.00;;;;;;;16.41;100.00;102443.00;5269665;28;20053;-72
2022/09/20 09:42:21;;;;;;;12.07;4.97;;;;;;;16.44;100.00;102440.81;5270745;28;20389;-72
2022/09/20 09:44:52;;;;;;;15.07;5.03;;;;;;;16.60;100.00;102444.56;5283074;28;20497;-72
2022/09/20 09:47:27;;;;;;;17.77;4.55;;;;;;;16.55;100.00;102445.91;5268156;28;20016;-72
2022/09/20 09:49:58;;;;;;;14.00;4.35;;;;;;;16.07;100.00;102437.66;5270769;28;20482;-72
2022/09/20 09:52:32;;;;;;;8.52;4.60;;;;;;;15.91;100.00;102441.97;5275581;28;20020;-72
2022/09/20 09:55:03;;;;;;;15.65;5.75;;;;;;;15.91;100.00;102441.13;5270002;28;20094;-72
2022/09/20 09:57:59;;;;;;;14.15;5.25;;;;;;;15.85;100.00;102437.22;5266673;28;20077;-72
2022/09/20 10:00:34;;;;;;;;;;;;;;;15.61;100.00;102435.19;5266685;28;20111;-72
2022/09/20 10:03:42;;;;;;;13.27;5.20;;;;;;;15.62;100.00;102441.50;5275881;28;20007;-72
2022/09/20 10:06:37;;;;;;;10.48;5.10;;;;;;;15.67;100.00;102437.31;5273945;28;20024;-72
2022/09/20 10:09:20;;;;;;;15.30;5.00;;;;;;;15.74;100.00;102438.34;5280107;28;20149;-72
2022/09/20 10:12:16;;;;;;;17.45;5.07;;;;;;;15.85;100.00;102442.63;5268058;28;20729;-72
2022/09/20 10:14:53;;;;;;;;;;;;;;;15.89;100.00;102445.88;5268257;28;20024;-72
2022/09/20 10:17:51;;;;;;;13.88;5.18;;;;;;;15.74;100.00;102432.94;5281279;28;19949;-72
2022/09/20 10:20:51;;;;;;;15.60;6.88;;;;;;;15.91;100.00;102438.44;5271246;28;20380;-72
2022/09/20 10:23:48;;;;;;;22.00;5.38;;;;;;;15.70;100.00;102431.56;5269279;28;20382;-72
2022/09/20 10:27:07;;;;;;;8.95;4.57;;;;;;;15.83;100.00;102435.69;5269588;28;20020;-72
2022/09/20 10:30:12;;;;;;;11.60;4.72;;;;;;;15.89;100.00;102433.19;5278452;28;20031;-72
2022/09/20 10:33:01;;;;;;;12.45;4.75;;;;;;;15.97;100.00;102427.81;5276062;28;20038;-72
2022/09/20 10:35:51;;;;;;;12.77;4.45;;;;;;;16.25;100.00;102432.97;5278905;28;20027;-72
2022/09/20 10:38:45;;;;;;;11.70;5.03;;;;;;;16.21;100.00;102435.16;5281687;28;20020;-72
2022/09/20 10:44:30;;;;;;;14.55;5.28;;;;;;;16.20;100.00;102433.47;5280273;28;20023;-72
2022/09/20 10:47:21;;;;;;;5.22;3.10;;;;;;;16.27;100.00;102439.09;5282819;28;20035;-72
2022/09/20 10:49:51;;;;;;;13.77;3.45;;;;;;;16.48;100.00;102435.91;5282394;28;20028;-72
2022/09/20 10:52:44;;;;;;;10.52;3.65;;;;;;;16.76;100.00;102434.59;5280791;28;20028;-72
2022/09/20 10:55:51;;;;;;;10.18;3.78;;;;;;;16.86;100.00;102434.44;5279356;28;20058;-72
2022/09/20 10:58:47;;;;;;;8.05;3.92;;;;;;;16.74;100.00;102424.97;5280603;28;20032;-72
2022/09/20 11:01:55;;;;;;;8.52;3.35;;;;;;;16.83;100.00;102437.50;5281912;28;20486;-72
2022/09/20 11:04:44;;;;;;;9.60;3.38;;;;;;;17.16;100.00;102434.75;5264108;28;20035;-72
2022/09/20 11:07:30;;;;;;;12.00;2.88;;;;;;;17.35;100.00;102429.81;5283038;28;20407;-72
2022/09/20 11:10:12;;;;;;;11.93;3.15;;;;;;;17.45;100.00;102436.94;5282696;28;20129;-73
2022/09/20 11:12:50;;;;;;;13.48;2.97;;;;;;;17.57;100.00;102439.13;5284448;28;20035;-72
2022/09/20 11:15:44;;;;;;;10.23;3.40;;;;;;;17.66;100.00;102429.06;5282751;28;20059;-72
2022/09/20 11:18:23;;;;;;;10.07;2.80;;;;;;;17.80;100.00;102439.22;5282446;28;20474;-72
2022/09/20 11:21:27;;;;;;;6.55;2.38;;;;;;;17.60;100.00;102436.03;5283372;28;20019;-72
2022/09/20 11:24:03;;;;;;;4.90;2.70;;;;;;;17.56;100.00;102436.56;5284100;28;20038;-72
2022/09/20 11:26:38;;;;;;;10.02;2.70;;;;;;;17.51;100.00;102433.50;5282838;28;20267;-73
2022/09/20 11:29:25;;;;;;;3.63;1.50;;;;;;;17.58;100.00;102434.53;5282261;28;20034;-72
2022/09/20 11:32:05;;;;;;;6.90;1.75;;;;;;;17.47;100.00;102432.16;5282142;28;20030;-73
2022/09/20 11:34:45;;;;;;;7.10;1.60;;;;;;;17.44;100.00;102424.38;5282161;28;20289;-73
2022/09/20 11:37:17;;;;;;;11.57;2.22;;;;;;;17.66;100.00;102428.22;5281942;28;20145;-72
2022/09/20 11:39:53;;;;;;;8.55;2.05;;;;;;;17.87;100.00;102423.06;5282146;28;20023;-72
2022/09/20 11:42:29;;;;;;;6.03;1.67;;;;;;;17.91;100.00;102429.00;5282723;28;20053;-72
2022/09/20 11:45:00;;;;;;;6.35;1.75;;;;;;;17.91;100.00;102424.41;5280613;28;20544;-72
2022/09/20 11:47:39;;;;;;;6.22;2.08;;;;;;;17.88;100.00;102422.06;5282950;28;20049;-73
2022/09/20 11:50:31;;;;;;;7.97;1.50;;;;;;;17.99;100.00;102428.97;5281911;28;20031;-72
2022/09/20 11:53:39;;;;;;;8.32;2.15;;;;;;;17.89;100.00;102431.06;5282518;28;20047;-72
2022/09/20 11:56:28;;;;;;;10.20;2.15;;;;;;;18.06;100.00;102422.66;5281936;28;20031;-72
2022/09/20 11:59:02;;;;;;;12.38;2.15;;;;;;;18.03;100.00;102428.44;5282644;28;20022;-72
2022/09/20 12:01:36;;;;;;;8.60;2.00;;;;;;;17.76;100.00;102432.44;5282535;28;20307;-72
2022/09/20 12:04:17;;;;;;;10.25;2.30;;;;;;;17.52;100.00;102430.66;5282171;28;20501;-72
2022/09/20 12:07:00;;;;;;;7.30;2.30;;;;;;;17.38;100.00;102427.81;5282764;28;20035;-72
2022/09/20 12:09:36;;;;;;;6.38;1.80;;;;;;;17.50;100.00;102420.97;5281820;28;20018;-72
2022/09/20 12:12:43;;;;;;;12.50;2.08;;;;;;;17.89;100.00;102436.50;5281584;28;20414;-72
2022/09/20 12:15:50;;;;;;;10.85;2.03;;;;;;;17.95;100.00;102428.47;5280711;28;20115;-72
2022/09/20 12:18:44;;;;;;;5.75;1.75;;;;;;;18.19;100.00;102421.25;5281653;28;20148;-72
2022/09/20 12:21:17;;;;;;;6.82;1.30;;;;;;;18.19;100.00;102415.81;5282019;28;20062;-73
2022/09/20 12:24:25;;;;;;;6.10;1.80;;;;;;;18.22;100.00;102418.16;5281757;28;20517;-73
2022/09/20 12:26:58;;;;;;;5.00;1.92;;;;;;;18.41;100.00;102422.28;5281629;28;20061;-72
2022/09/20 12:29:31;;;;;;;8.23;1.60;;;;;;;18.58;100.00;102413.84;5282580;28;20054;-73
2022/09/20 12:32:22;;;;;;;6.60;1.27;;;;;;;18.95;100.00;102417.66;5281758;28;20099;-72
2022/09/20 12:34:53;;;;;;;6.13;1.17;;;;;;;19.26;100.00;102422.13;5279950;28;20019;-73
2022/09/20 12:37:25;;;;;;;6.53;1.52;;;;;;;19.60;100.00;102416.19;5281544;28;20027;-73
2022/09/20 12:39:55;;;;;;;5.22;1.15;;;;;;;19.78;100.00;102413.94;5280659;28;20500;-72
2022/09/20 12:42:30;;;;;;;9.18;1.52;;;;;;;19.43;100.00;102410.06;5280831;28;20534;-73
2022/09/20 12:45:14;;;;;;;6.40;1.25;;;;;;;19.09;100.00;102413.28;5281477;28;20096;-73